Time;durP1;ratioP1;P1;durP2;ratioP2;P2;SDS_P1;SDS_P2;PMS_P1;PMS_P2;Temp;Humidity;BMP_temperature;BMP_pressure;BME280_temperature;BME280_humidity;BME280_pressure;Samples;Min_cycle;Max_cycle;Signal;HPM_P1;HPM_P2
2022/08/24 00:01:54;;;;;;;;;;;;;;;20.98;69.81;101763.91;4986289;28;19929;-55
2022/08/24 00:04:19;;;;;;;;;;;;;;;20.99;69.60;101770.97;4984404;28;20482;-57
2022/08/24 00:06:44;;;;;;;;;;;;;;;21.01;69.60;101770.84;4992171;28;19922;-55
2022/08/24 00:09:10;;;;;;;;;;;;;;;21.01;69.76;101773.53;4973767;28;19921;-52
2022/08/24 00:11:35;;;;;;;;;;;;;;;21.01;69.59;101773.53;4984671;28;19918;-56
2022/08/24 00:14:00;;;;;;;;;;;;;;;21.02;69.93;101772.53;4989603;28;19930;-55
2022/08/24 00:16:26;;;;;;;;;;;;;;;21.06;69.74;101783.81;4985339;28;20084;-53
2022/08/24 00:18:51;;;;;;;;;;;;;;;21.09;69.55;101778.22;4985096;28;19922;-53
2022/08/24 00:21:17;;;;;;;;;;;;;;;21.11;69.58;101776.22;4986579;28;19961;-53
2022/08/24 00:23:43;;;;;;;;;;;;;;;21.15;69.54;101780.34;4984978;28;19932;-53
2022/08/24 00:26:08;;;;;;;;;;;;;;;21.21;69.73;101784.31;4992300;28;19926;-52
2022/08/24 00:28:34;;;;;;;;;;;;;;;21.26;69.65;101780.25;4983819;28;19967;-55
2022/08/24 00:31:00;;;;;;;;;;;;;;;21.30;69.27;101779.00;4986817;28;20480;-54
2022/08/24 00:33:25;;;;;;;;;;;;;;;21.36;69.47;101779.47;4993277;28;20362;-54
2022/08/24 00:35:50;;;;;;;;;;;;;;;21.39;69.12;101781.88;4988363;28;19937;-54
2022/08/24 00:38:16;;;;;;;;;;;;;;;21.43;68.94;101783.28;4991747;28;19925;-54
2022/08/24 00:40:43;;;;;;;;;;;;;;;21.44;68.99;101777.81;4982545;28;19929;-52
2022/08/24 00:43:10;;;;;;;;;;;;;;;21.44;68.98;101780.50;4992489;28;20388;-55
2022/08/24 00:45:43;;;;;;;;;;;;;;;21.45;68.95;101784.00;4982042;28;19956;-55
2022/08/24 00:48:12;;;;;;;;;;;;;;;21.43;69.06;101788.63;4982130;28;19997;-53
2022/08/24 00:50:40;;;;;;;;;;;;;;;21.41;68.88;101777.22;4987558;28;20526;-55
2022/08/24 00:53:08;;;;;;;;;;;;;;;21.37;69.03;101789.19;4992149;28;19921;-55
2022/08/24 00:55:37;;;;;;;;;;;;;;;21.33;69.17;101785.91;4991250;28;20316;-52
2022/08/24 00:58:06;;;;;;;;;;;;;;;21.28;69.41;101780.13;4985573;28;19922;-53
2022/08/24 01:00:39;;;;;;;;;;;;;;;21.27;69.37;101779.28;4985323;28;19976;-53
2022/08/24 01:03:05;;;;;;;;;;;;;;;21.28;69.41;101775.63;4970383;28;19925;-54
2022/08/24 01:05:32;;;;;;;;;;;;;;;21.29;69.18;101787.19;4988664;28;19925;-55
2022/08/24 01:07:58;;;;;;;;;;;;;;;21.26;69.42;101782.94;5001677;28;19921;-55
2022/08/24 01:10:24;;;;;;;;;;;;;;;21.25;69.29;101783.91;4993005;28;19918;-53
2022/08/24 01:12:52;;;;;;;;;;;;;;;21.25;69.63;101780.41;4983480;28;19921;-54
2022/08/24 01:15:19;;;;;;;;;;;;;;;21.24;69.47;101782.25;4989237;28;20009;-54
2022/08/24 01:20:28;;;;;;;;;;;;;;;21.24;69.65;101782.25;4984742;28;19987;-55
2022/08/24 01:23:10;;;;;;;;;;;;;;;21.26;69.74;101782.09;4991688;28;20404;-52
2022/08/24 01:25:37;;;;;;;;;;;;;;;21.25;69.53;101783.91;4988538;28;19926;-53
2022/08/24 01:28:11;;;;;;;;;;;;;;;21.26;69.79;101784.78;4988073;28;19922;-55
2022/08/24 01:30:36;;;;;;;;;;;;;;;21.26;69.85;101777.56;4980278;28;20598;-53
2022/08/24 01:33:04;;;;;;;;;;;;;;;21.26;69.94;101777.56;4989601;28;19925;-57
2022/08/24 01:35:31;;;;;;;;;;;;;;;21.27;69.94;101784.63;4985480;28;20312;-58
2022/08/24 01:37:59;;;;;;;;;;;;;;;21.27;70.22;101787.31;4990104;28;19929;-53
2022/08/24 01:40:28;;;;;;;;;;;;;;;21.30;70.04;101783.53;4988955;28;19929;-53
2022/08/24 01:42:53;;;;;;;;;;;;;;;21.30;70.05;101779.00;4983066;28;19928;-54
2022/08/24 01:45:19;;;;;;;;;;;;;;;21.30;70.04;101792.38;4999624;28;19922;-55
2022/08/24 01:47:44;;;;;;;;;;;;;;;21.30;69.88;101787.03;4989239;28;19933;-57
2022/08/24 01:50:10;;;;;;;;;;;;;;;21.30;70.22;101779.00;4983477;28;20369;-54
2022/08/24 01:52:37;;;;;;;;;;;;;;;21.30;70.05;101786.22;4981100;28;19926;-54
2022/08/24 01:55:05;;;;;;;;;;;;;;;21.30;70.15;101788.88;4981374;28;19950;-53
2022/08/24 01:57:30;;;;;;;;;;;;;;;21.29;70.30;101790.69;4990083;28;20012;-55
2022/08/24 01:59:55;;;;;;;;;;;;;;;21.29;70.30;101796.03;4984159;28;19929;-53
2022/08/24 02:02:24;;;;;;;;;;;;;;;21.28;70.17;101791.66;4976754;28;19999;-54
2022/08/24 02:04:49;;;;;;;;;;;;;;;21.31;70.32;101791.41;4987399;28;20404;-54
2022/08/24 02:07:14;;;;;;;;;;;;;;;21.32;70.16;101787.75;4987513;28;19926;-54
2022/08/24 02:09:40;;;;;;;;;;;;;;;21.34;70.34;101789.44;4983113;28;19922;-54
2022/08/24 02:12:05;;;;;;;;;;;;;;;21.33;70.38;101788.59;4983125;28;19933;-52
2022/08/24 02:14:31;;;;;;;;;;;;;;;21.34;70.25;101797.47;4980917;28;20400;-56
2022/08/24 02:16:57;;;;;;;;;;;;;;;21.31;70.25;101802.13;4987214;28;20397;-54
2022/08/24 02:19:23;;;;;;;;;;;;;;;21.32;70.55;101794.94;4989691;28;20381;-54
2022/08/24 02:21:49;;;;;;;;;;;;;;;21.32;70.48;101789.59;4992372;28;19925;-53
2022/08/24 02:24:15;;;;;;;;;;;;;;;21.33;70.39;101791.25;4986009;28;19936;-54
2022/08/24 02:26:40;;;;;;;;;;;;;;;21.36;70.51;101787.50;4986179;28;19922;-53
2022/08/24 02:29:05;;;;;;;;;;;;;;;21.38;70.81;101790.88;4980841;28;19936;-52
2022/08/24 02:31:31;;;;;;;;;;;;;;;21.40;70.71;101792.44;4981406;28;19937;-55
2022/08/24 02:33:57;;;;;;;;;;;;;;;21.41;70.47;101786.09;4988159;28;20302;-53
2022/08/24 02:36:22;;;;;;;;;;;;;;;21.41;70.58;101788.78;4991376;28;20419;-57
2022/08/24 02:38:48;;;;;;;;;;;;;;;21.44;70.65;101790.34;4990986;28;19984;-54
2022/08/24 02:41:13;;;;;;;;;;;;;;;21.46;70.48;101788.38;4992324;28;19940;-53
2022/08/24 02:43:39;;;;;;;;;;;;;;;21.46;70.41;101791.06;4985829;28;19930;-57
2022/08/24 02:46:05;;;;;;;;;;;;;;;21.45;70.64;101792.03;4982729;28;19918;-54
2022/08/24 02:48:30;;;;;;;;;;;;;;;21.41;70.58;101786.09;4988570;28;19925;-56
2022/08/24 02:50:56;;;;;;;;;;;;;;;21.41;70.65;101777.22;4969724;28;20396;-53
2022/08/24 02:53:21;;;;;;;;;;;;;;;21.39;70.74;101777.34;4987270;28;19925;-54
2022/08/24 02:55:47;;;;;;;;;;;;;;;21.38;70.47;101769.47;4986250;28;19967;-55
2022/08/24 02:58:15;;;;;;;;;;;;;;;21.34;70.84;101776.06;4986438;28;20523;-54
2022/08/24 03:00:41;;;;;;;;;;;;;;;21.30;71.02;101779.00;4987135;28;19926;-53
2022/08/24 03:03:07;;;;;;;;;;;;;;;21.29;70.81;101774.63;4990324;28;19963;-55
2022/08/24 03:05:33;;;;;;;;;;;;;;;21.31;70.97;101779.88;4990854;28;20388;-55
2022/08/24 03:07:58;;;;;;;;;;;;;;;21.32;71.01;101777.06;4993148;28;20380;-55
2022/08/24 03:10:23;;;;;;;;;;;;;;;21.32;70.90;101776.22;4994683;28;19948;-52
2022/08/24 03:12:49;;;;;;;;;;;;;;;21.33;70.86;101783.22;4990570;28;19969;-57
2022/08/24 03:15:15;;;;;;;;;;;;;;;21.35;71.05;101780.44;4987430;28;19937;-56
2022/08/24 03:17:41;;;;;;;;;;;;;;;21.35;71.01;101775.91;4982452;28;19964;-52
2022/08/24 03:20:09;;;;;;;;;;;;;;;21.36;70.72;101776.78;4993477;28;19988;-56
2022/08/24 03:22:35;;;;;;;;;;;;;;;21.34;70.98;101778.75;5007344;28;19921;-56
2022/08/24 03:25:00;;;;;;;;;;;;;;;21.34;71.11;101779.56;4986610;28;20395;-55
2022/08/24 03:27:26;;;;;;;;;;;;;;;21.34;70.77;101771.53;4990299;28;19922;-55
2022/08/24 03:29:51;;;;;;;;;;;;;;;21.30;71.15;101770.97;4991446;28;20320;-53
2022/08/24 03:32:16;;;;;;;;;;;;;;;21.29;71.26;101771.13;4987526;28;20205;-56
2022/08/24 03:34:42;;;;;;;;;;;;;;;21.27;70.98;101779.28;4991366;28;20009;-54
2022/08/24 03:37:07;;;;;;;;;;;;;;;21.25;71.20;101781.22;4973255;28;20020;-54
2022/08/24 03:39:33;;;;;;;;;;;;;;;21.22;71.57;101781.53;4986452;28;19922;-54
2022/08/24 03:41:58;;;;;;;;;;;;;;;21.20;71.47;101777.25;4984060;28;19936;-53
2022/08/24 03:44:24;;;;;;;;;;;;;;;21.21;71.41;101774.47;4987384;28;20024;-52
2022/08/24 03:46:51;;;;;;;;;;;;;;;21.21;71.46;101770.94;4983629;28;19949;-52
2022/08/24 03:49:17;;;;;;;;;;;;;;;21.22;71.51;101780.66;4985254;28;21194;-54
2022/08/24 03:51:42;;;;;;;;;;;;;;;21.20;71.42;101778.13;4984009;28;20333;-53
2022/08/24 03:54:08;;;;;;;;;;;;;;;21.21;71.86;101771.78;4985326;28;19972;-54
2022/08/24 03:56:34;;;;;;;;;;;;;;;21.21;71.78;101778.97;4986691;28;19936;-52
2022/08/24 03:58:59;;;;;;;;;;;;;;;21.19;71.84;101776.44;4995324;28;19987;-52
2022/08/24 04:01:24;;;;;;;;;;;;;;;21.19;71.76;101776.44;4986480;28;19969;-51
2022/08/24 04:03:52;;;;;;;;;;;;;;;21.20;71.68;101780.81;4984997;28;19932;-53
2022/08/24 04:06:17;;;;;;;;;;;;;;;21.21;71.95;101785.19;4984999;28;19925;-52
2022/08/24 04:08:43;;;;;;;;;;;;;;;21.23;71.62;101791.25;4988350;28;19980;-52
2022/08/24 04:11:12;;;;;;;;;;;;;;;21.25;72.00;101797.28;4989909;28;19938;-53
2022/08/24 04:13:38;;;;;;;;;;;;;;;21.27;71.86;101795.31;4984384;28;19926;-52
2022/08/24 04:16:04;;;;;;;;;;;;;;;21.27;71.67;101794.50;4988927;28;19933;-52
2022/08/24 04:18:30;;;;;;;;;;;;;;;21.27;71.94;101795.31;4987636;28;20024;-53
2022/08/24 04:20:55;;;;;;;;;;;;;;;21.27;71.61;101795.31;4984569;28;20020;-52
2022/08/24 04:23:21;;;;;;;;;;;;;;;21.29;71.66;101796.03;4980091;28;20021;-53
2022/08/24 04:25:47;;;;;;;;;;;;;;;21.31;71.63;101799.44;4984766;28;20298;-53
2022/08/24 04:28:14;;;;;;;;;;;;;;;21.32;71.96;101797.63;4977642;28;19977;-53
2022/08/24 04:30:40;;;;;;;;;;;;;;;21.34;71.61;101802.84;4982780;28;19991;-53
2022/08/24 04:33:06;;;;;;;;;;;;;;;21.35;71.82;101799.19;4981153;28;19936;-51
2022/08/24 04:35:35;;;;;;;;;;;;;;;21.36;71.95;101798.19;4980725;28;19926;-52
2022/08/24 04:38:01;;;;;;;;;;;;;;;21.37;71.96;101799.91;4982087;28;19940;-51
2022/08/24 04:40:26;;;;;;;;;;;;;;;21.38;71.83;101802.44;4981298;28;21241;-52
2022/08/24 04:42:51;;;;;;;;;;;;;;;21.41;71.53;101812.88;4983337;28;20018;-52
2022/08/24 04:45:17;;;;;;;;;;;;;;;21.43;71.82;101818.09;4984806;28;20028;-51
2022/08/24 04:47:43;;;;;;;;;;;;;;;21.45;71.71;101814.31;4979451;28;19972;-54
2022/08/24 04:50:08;;;;;;;;;;;;;;;21.47;71.89;101820.38;4983440;28;19926;-54
2022/08/24 04:52:34;;;;;;;;;;;;;;;21.50;71.64;101816.59;4982436;28;19932;-53
2022/08/24 04:54:59;;;;;;;;;;;;;;;21.52;71.60;101819.97;4977074;28;20006;-52
2022/08/24 04:57:25;;;;;;;;;;;;;;;21.53;71.54;101821.69;4982983;28;19926;-53
2022/08/24 04:59:54;;;;;;;;;;;;;;;21.52;71.50;101827.16;4990076;28;19926;-52
2022/08/24 05:02:21;;;;;;;;;;;;;;;21.51;71.44;101829.00;4990824;28;20372;-53
2022/08/24 05:04:47;;;;;;;;;;;;;;;21.50;71.38;101824.63;4990638;28;19922;-55
2022/08/24 05:07:12;;;;;;;;;;;;;;;21.51;71.58;101831.66;4989382;28;19922;-53
2022/08/24 05:09:37;;;;;;;;;;;;;;;21.51;71.78;101834.34;4992934;28;20357;-54
2022/08/24 05:12:03;;;;;;;;;;;;;;;21.53;71.68;101831.53;4992259;28;20008;-53
2022/08/24 05:14:29;;;;;;;;;;;;;;;21.55;71.53;101835.78;4991788;28;19926;-55
2022/08/24 05:16:55;;;;;;;;;;;;;;;21.58;71.61;101840.84;4990088;28;19926;-55
2022/08/24 05:19:21;;;;;;;;;;;;;;;21.61;71.38;101845.13;4993296;28;19925;-54
2022/08/24 05:21:47;;;;;;;;;;;;;;;21.64;71.54;101844.84;4989851;28;20320;-54
2022/08/24 05:24:12;;;;;;;;;;;;;;;21.68;71.74;101851.63;4992718;28;19925;-55
2022/08/24 05:26:38;;;;;;;;;;;;;;;21.70;71.70;101847.00;4994455;28;20480;-54
2022/08/24 05:29:04;;;;;;;;;;;;;;;21.74;71.50;101852.91;4991385;28;19957;-54
2022/08/24 05:31:31;;;;;;;;;;;;;;;21.75;71.42;101849.25;4989210;28;19929;-53
2022/08/24 05:33:57;;;;;;;;;;;;;;;21.79;71.33;101848.00;4992494;28;19961;-55
2022/08/24 05:36:24;;;;;;;;;;;;;;;21.80;71.47;101847.03;4993132;28;19921;-54
2022/08/24 05:38:50;;;;;;;;;;;;;;;21.83;71.28;101844.09;4990614;28;20032;-56
2022/08/24 05:41:16;;;;;;;;;;;;;;;21.86;71.25;101842.97;4991542;28;19926;-54
2022/08/24 05:43:42;;;;;;;;;;;;;;;21.88;71.15;101847.19;4990561;28;19929;-54
2022/08/24 05:46:07;;;;;;;;;;;;;;;21.90;71.35;101845.22;4987495;28;19928;-54
2022/08/24 05:48:34;;;;;;;;;;;;;;;21.92;71.25;101848.63;4995898;28;19930;-56
2022/08/24 05:51:00;;;;;;;;;;;;;;;21.95;71.01;101846.66;4978618;28;20423;-53
2022/08/24 05:53:25;;;;;;;;;;;;;;;21.95;71.33;101850.16;4994428;28;19952;-54
2022/08/24 05:55:51;;;;;;;;;;;;;;;21.96;70.93;101853.72;4997377;28;19938;-54
2022/08/24 05:58:16;;;;;;;;;;;;;;;21.96;71.20;101853.72;4996170;28;19961;-53
2022/08/24 06:00:44;;;;;;;;;;;;;;;21.99;71.03;101858.81;4995750;28;19932;-55
2022/08/24 06:03:10;;;;;;;;;;;;;;;21.98;71.30;101854.44;4997745;28;19933;-53
2022/08/24 06:05:38;;;;;;;;;;;;;;;21.99;71.32;101858.81;4994822;28;20051;-53
2022/08/24 06:08:03;;;;;;;;;;;;;;;22.00;71.19;101855.13;4989480;28;20012;-53
2022/08/24 06:10:28;;;;;;;;;;;;;;;22.01;71.29;101863.03;4988640;28;20011;-54
2022/08/24 06:12:53;;;;;;;;;;;;;;;22.00;71.39;101861.34;4993687;28;21534;-53
2022/08/24 06:15:20;;;;;;;;;;;;;;;22.01;71.25;101862.16;4979877;28;19925;-53
2022/08/24 06:17:46;;;;;;;;;;;;;;;22.02;71.18;101859.38;4993347;28;19937;-53
2022/08/24 06:20:11;;;;;;;;;;;;;;;22.03;71.02;101857.53;4994040;28;19930;-53
2022/08/24 06:22:37;;;;;;;;;;;;;;;22.03;71.19;101865.56;4993623;28;19929;-53
2022/08/24 06:27:46;;;;;;;;;;;;;;;22.06;71.45;101865.28;4993804;28;20508;-53
2022/08/24 06:30:12;;;;;;;;;;;;;;;22.08;71.28;101868.69;4985243;28;19929;-53
2022/08/24 06:32:38;;;;;;;;;;;;;;;22.09;71.32;101870.38;4979501;28;19983;-52
2022/08/24 06:35:04;;;;;;;;;;;;;;;22.12;71.41;101872.81;4980560;28;19925;-53
2022/08/24 06:37:29;;;;;;;;;;;;;;;22.14;71.14;101868.16;4979839;28;20309;-53
2022/08/24 06:39:55;;;;;;;;;;;;;;;22.16;71.12;101874.19;4981817;28;20344;-53
2022/08/24 06:42:23;;;;;;;;;;;;;;;22.20;71.40;101875.63;4989546;28;19922;-52
2022/08/24 06:44:48;;;;;;;;;;;;;;;22.21;71.34;101874.63;4994218;28;20021;-53
2022/08/24 06:47:14;;;;;;;;;;;;;;;22.27;71.17;101878.59;4991515;28;20067;-52
2022/08/24 06:49:39;;;;;;;;;;;;;;;22.31;71.21;101885.38;4982047;28;19956;-53
2022/08/24 06:52:05;;;;;;;;;;;;;;;22.37;70.97;101882.16;4982360;28;19921;-53
2022/08/24 06:54:30;;;;;;;;;;;;;;;22.42;70.93;101879.09;4982859;28;20275;-53
2022/08/24 06:56:57;;;;;;;;;;;;;;;22.47;71.01;101879.50;4981366;28;19956;-53
2022/08/24 06:59:23;;;;;;;;;;;;;;;22.52;70.91;101879.94;4983942;28;19965;-54
2022/08/24 07:01:48;;;;;;;;;;;;;;;22.57;70.78;101887.56;4986021;28;20041;-53
2022/08/24 07:04:13;;;;;;;;;;;;;;;22.63;70.72;101891.50;4986172;28;19971;-55
2022/08/24 07:06:39;;;;;;;;;;;;;;;22.67;70.46;101888.44;4978861;28;19960;-53
2022/08/24 07:09:04;;;;;;;;;;;;;;;22.72;70.20;101888.00;4983738;28;19936;-54
2022/08/24 07:11:31;;;;;;;;;;;;;;;22.76;70.23;101894.78;4979004;28;19969;-53
2022/08/24 07:13:56;;;;;;;;;;;;;;;22.80;70.26;101900.72;4985419;28;20281;-54
2022/08/24 07:16:22;;;;;;;;;;;;;;;22.84;69.96;101902.97;4984312;28;20324;-54
2022/08/24 07:18:47;;;;;;;;;;;;;;;22.89;70.13;101901.72;4959914;28;19929;-55
2022/08/24 07:21:13;;;;;;;;;;;;;;;22.92;69.96;101898.72;4981857;28;19930;-55
2022/08/24 07:23:38;;;;;;;;;;;;;;;22.93;69.93;101897.72;4990092;28;20039;-55
2022/08/24 07:26:08;;;;;;;;;;;;;;;22.95;69.83;101903.81;4982243;28;19996;-52
2022/08/24 07:28:36;;;;;;;;;;;;;;;22.93;69.79;101903.09;4978952;28;20496;-53
2022/08/24 07:31:02;;;;;;;;;;;;;;;22.90;69.79;101901.56;4985044;28;19929;-53
2022/08/24 07:33:28;;;;;;;;;;;;;;;22.87;69.64;101907.19;4980597;28;19995;-53
2022/08/24 07:35:53;;;;;;;;;;;;;;;22.88;69.79;101908.06;4983333;28;19964;-52
2022/08/24 07:38:19;;;;;;;;;;;;;;;22.91;69.92;101915.84;4980232;28;19925;-53
2022/08/24 07:40:46;;;;;;;;;;;;;;;22.94;69.83;101915.53;4971275;28;19933;-53
2022/08/24 07:43:12;;;;;;;;;;;;;;;22.96;69.60;101916.25;4983108;28;20030;-52
2022/08/24 07:45:39;;;;;;;;;;;;;;;22.96;69.58;101925.16;4966308;28;20395;-53
2022/08/24 07:48:04;;;;;;;;;;;;;;;22.94;69.57;101919.06;4986518;28;20440;-52
2022/08/24 07:50:29;;;;;;;;;;;;;;;22.92;69.52;101925.56;4983953;28;19921;-53
2022/08/24 07:52:55;;;;;;;;;;;;;;;22.91;69.70;101924.72;4988463;28;20026;-52
2022/08/24 07:55:20;;;;;;;;;;;;;;;22.92;69.69;101925.56;4984753;28;20356;-53
2022/08/24 07:57:46;;;;;;;;;;;;;;;22.92;69.50;101926.41;4979765;28;19937;-56
2022/08/24 08:00:12;;;;;;;;;;;;;;;22.94;69.63;101928.94;4984341;28;19926;-52
2022/08/24 08:02:40;;;;;;;;;;;;;;;22.94;69.68;101923.56;4984364;28;19926;-52
2022/08/24 08:05:05;;;;;;;;;;;;;;;22.97;69.67;101926.00;4982799;28;20690;-54
2022/08/24 08:07:31;;;;;;;;;;;;;;;22.99;69.58;101926.69;4981220;28;19936;-53
2022/08/24 08:09:56;;;;;;;;;;;;;;;23.03;69.46;101930.81;4980878;28;20318;-53
2022/08/24 08:12:21;;;;;;;;;;;;;;;23.05;69.55;101928.81;4983990;28;19928;-53
2022/08/24 08:14:47;;;;;;;;;;;;;;;23.06;69.42;101935.88;4982059;28;20361;-54
2022/08/24 08:17:13;;;;;;;;;;;;;;;23.08;69.28;101936.56;4985975;28;20025;-54
2022/08/24 08:19:40;;;;;;;;;;;;;;;23.10;69.36;101936.44;4986238;28;19963;-53
2022/08/24 08:24:49;;;;;;;;;;;;;;;23.13;69.44;101934.31;4989226;28;19968;-53
2022/08/24 08:27:15;;;;;;;;;;;;;;;23.13;69.21;101933.47;4984685;28;20012;-52
2022/08/24 08:29:40;;;;;;;;;;;;;;;23.16;69.26;101932.34;4989531;28;20061;-56
2022/08/24 08:32:06;;;;;;;;;;;;;;;23.20;69.03;101936.44;4982200;28;20305;-53
2022/08/24 08:34:32;;;;;;;;;;;;;;;23.24;68.91;101936.03;4983225;28;20036;-54
2022/08/24 08:36:58;;;;;;;;;;;;;;;23.28;69.00;101940.13;4981986;28;19932;-52
2022/08/24 08:39:24;;;;;;;;;;;;;;;23.34;68.80;101941.41;4966311;28;20735;-52
2022/08/24 08:41:50;;;;;;;;;;;;;;;23.39;68.92;101951.69;4980342;28;19937;-53
2022/08/24 08:44:34;;;;;;;;;;;;;;;23.43;68.67;101945.91;4979435;28;19925;-53
2022/08/24 08:46:59;;;;;;;;;;;;;;;23.46;68.36;101943.91;4977988;28;19926;-57
2022/08/24 08:49:36;;;;;;;;;;;;;;;23.51;68.47;101947.03;4980241;28;19933;-52
2022/08/24 08:52:05;;;;;;;;;;;;;;;23.58;68.35;101945.44;4987261;28;20123;-54
2022/08/24 08:54:30;;;;;;;;;;;;;;;23.66;68.23;101948.25;4988447;28;20452;-53
2022/08/24 08:57:05;;;;;;;;;;;;;;;23.73;68.05;101943.97;4974081;28;19926;-53
2022/08/24 08:59:38;;;;;;;;;;;;;;;23.82;68.03;101941.41;4989255;28;19945;-53
2022/08/24 09:02:14;;;;;;;;;;;;;;;23.91;67.78;101953.97;4984566;28;19949;-53
2022/08/24 09:04:54;;;;;;;;;;;;;;;23.96;67.62;101954.41;4987033;28;19949;-54
2022/08/24 09:07:25;;;;;;;;;;;;;;;24.00;67.57;101946.88;4987901;28;19926;-54
2022/08/24 09:10:12;;;;;;;;;;;;;;;24.02;67.24;101956.50;4985889;28;20035;-52
2022/08/24 09:12:56;;;;;;;;;;;;;;;24.07;67.40;101957.88;4988231;28;20830;-53
2022/08/24 09:15:22;;;;;;;;;;;;;;;24.10;67.35;101946.84;4992315;28;19921;-53
2022/08/24 09:18:05;;;;;;;;;;;;;;;24.14;66.96;101950.91;4991009;28;19924;-52
2022/08/24 09:20:45;;;;;;;;;;;;;;;24.19;66.98;101951.31;4992568;28;20024;-53
2022/08/24 09:23:16;;;;;;;;;;;;;;;24.25;66.84;101963.31;4992993;28;20633;-53
2022/08/24 09:26:11;;;;;;;;;;;;;;;24.28;66.70;101949.56;4989722;28;19925;-55
2022/08/24 09:28:53;;;;;;;;;;;;;;;24.34;66.50;101949.81;4979706;28;19925;-53
2022/08/24 09:31:18;;;;;;;;;;;;;;;24.42;66.47;101959.00;4989494;28;20021;-54
2022/08/24 09:33:49;;;;;;;;;;;;;;;24.47;66.04;101954.00;4984073;28;19929;-54
2022/08/24 09:36:18;;;;;;;;;;;;;;;24.53;66.25;101956.09;4983463;28;20408;-54
2022/08/24 09:38:58;;;;;;;;;;;;;;;24.58;65.98;101961.84;4985064;28;19925;-54
2022/08/24 09:41:41;;;;;;;;;;;;;;;24.64;66.08;101952.34;4987334;28;19921;-53
2022/08/24 09:44:18;;;;;;;;;;;;;;;24.69;65.93;101949.19;4982721;28;19925;-53
2022/08/24 09:47:02;;;;;;;;;;;;;;;24.74;65.78;101946.91;4984790;28;20526;-53
2022/08/24 09:49:39;;;;;;;;;;;;;;;24.78;65.53;101948.28;4984357;28;21384;-54
2022/08/24 09:52:20;;;;;;;;;;;;;;;24.81;65.40;101940.75;4991491;28;19921;-52
2022/08/24 09:55:19;;;;;;;;;;;;;;;24.86;65.15;101953.75;4982254;28;20097;-55
2022/08/24 09:57:47;;;;;;;;;;;;;;;24.90;65.18;101949.75;4962232;28;19933;-56
2022/08/24 10:00:20;;;;;;;;;;;;;;;24.91;65.24;101940.66;4987015;28;19921;-54
2022/08/24 10:03:04;;;;;;;;;;;;;;;24.90;65.15;101941.66;4982953;28;19932;-52
2022/08/24 10:05:41;;;;;;;;;;;;;;;24.89;64.89;101958.81;4989124;28;19982;-54
2022/08/24 10:08:25;;;;;;;;;;;;;;;24.87;65.11;101954.59;4987257;28;19922;-54
2022/08/24 10:11:16;;;;;;;;;;;;;;;24.84;64.97;101949.50;4984176;28;20016;-54
2022/08/24 10:13:57;;;;;;;;;;;;;;;24.83;65.04;101948.69;4955228;28;20460;-52
2022/08/24 10:16:32;;;;;;;;;;;;;;;24.81;64.93;101950.69;4985410;28;19918;-52
2022/08/24 10:19:00;;;;;;;;;;;;;;;24.80;65.01;101943.59;4986199;28;20060;-52
2022/08/24 10:21:28;;;;;;;;;;;;;;;24.83;64.79;101948.69;4986887;28;19925;-52
2022/08/24 10:24:12;;;;;;;;;;;;;;;24.83;64.77;101937.91;4989112;28;19921;-53
2022/08/24 10:26:37;;;;;;;;;;;;;;;24.82;64.84;101938.91;4988952;28;20044;-55
2022/08/24 10:29:25;;;;;;;;;;;;;;;24.83;64.72;101935.22;4982539;28;20040;-53
2022/08/24 10:32:10;;;;;;;;;;;;;;;24.83;64.69;101934.34;4975495;28;20024;-55
2022/08/24 10:34:39;;;;;;;;;;;;;;;24.84;64.82;101936.91;4983332;28;21199;-55
2022/08/24 10:37:21;;;;;;;;;;;;;;;24.86;64.74;101934.06;4983988;28;19964;-53
2022/08/24 10:40:09;;;;;;;;;;;;;;;24.86;64.79;101931.38;4982811;28;19964;-53
2022/08/24 10:45:35;;;;;;;;;;;;;;;24.88;64.63;101930.19;4980827;28;19972;-53
2022/08/24 10:48:13;;;;;;;;;;;;;;;24.90;64.42;101930.91;4982985;28;20032;-53
2022/08/24 10:50:57;;;;;;;;;;;;;;;24.92;64.68;101933.47;4981460;28;19922;-53
2022/08/24 10:53:25;;;;;;;;;;;;;;;24.93;64.35;101938.66;4984484;28;20020;-54
2022/08/24 10:55:59;;;;;;;;;;;;;;;24.94;64.23;101934.97;4964929;28;21406;-56
2022/08/24 10:58:24;;;;;;;;;;;;;;;24.93;64.26;101930.59;4986666;28;19927;-54
2022/08/24 11:00:49;;;;;;;;;;;;;;;24.92;64.47;101936.97;4989385;28;20345;-53
2022/08/24 11:03:20;;;;;;;;;;;;;;;24.92;64.23;101933.47;4993299;28;20392;-55
2022/08/24 11:05:53;;;;;;;;;;;;;;;24.90;64.32;101938.97;4994060;28;19921;-54
2022/08/24 11:08:18;;;;;;;;;;;;;;;24.90;64.41;101938.97;4994486;28;19918;-55
2022/08/24 11:10:44;;;;;;;;;;;;;;;24.88;64.17;101938.28;4995138;28;19984;-52
2022/08/24 11:13:27;;;;;;;;;;;;;;;24.84;64.42;101944.13;4979918;28;19964;-52
2022/08/24 11:15:54;;;;;;;;;;;;;;;24.81;64.30;101950.69;4995880;28;20831;-54
2022/08/24 11:18:19;;;;;;;;;;;;;;;24.80;64.47;101943.59;4995872;28;19937;-53
2022/08/24 11:20:46;;;;;;;;;;;;;;;24.79;64.33;101936.53;4994162;28;19926;-52
2022/08/24 11:23:20;;;;;;;;;;;;;;;24.79;64.32;101932.00;4989947;28;20079;-52
2022/08/24 11:26:01;;;;;;;;;;;;;;;24.80;64.11;101941.78;4993905;28;20325;-53
2022/08/24 11:28:35;;;;;;;;;;;;;;;24.80;64.14;101943.59;4991942;28;19921;-54
2022/08/24 11:31:02;;;;;;;;;;;;;;;24.79;64.34;101947.28;4992464;28;20353;-53
2022/08/24 11:33:42;;;;;;;;;;;;;;;24.78;64.01;101945.59;4994367;28;19976;-54
2022/08/24 11:36:13;;;;;;;;;;;;;;;24.77;64.14;101946.59;4995393;28;19921;-54
2022/08/24 11:38:39;;;;;;;;;;;;;;;24.77;63.88;101946.59;4991624;28;19925;-52
2022/08/24 11:41:33;;;;;;;;;;;;;;;24.73;63.88;101947.91;4994774;28;19935;-52
2022/08/24 11:44:02;;;;;;;;;;;;;;;24.70;63.86;101938.28;4987573;28;20186;-52
2022/08/24 11:46:45;;;;;;;;;;;;;;;24.69;63.83;101943.81;4992108;28;19917;-55
2022/08/24 11:49:19;;;;;;;;;;;;;;;24.68;63.83;101939.41;4992209;28;19929;-52
2022/08/24 11:52:01;;;;;;;;;;;;;;;24.69;63.92;101943.81;4992104;28;19925;-54
2022/08/24 11:54:49;;;;;;;;;;;;;;;24.69;63.58;101941.13;4991727;28;19925;-55
2022/08/24 11:57:15;;;;;;;;;;;;;;;24.69;63.73;101935.72;4993578;28;19969;-52
2022/08/24 11:59:47;;;;;;;;;;;;;;;24.70;63.55;101935.59;4993419;28;19921;-58
2022/08/24 12:02:22;;;;;;;;;;;;;;;24.71;63.57;101933.75;4993302;28;19929;-53
2022/08/24 12:05:00;;;;;;;;;;;;;;;24.71;63.36;101936.47;4994167;28;19921;-52
2022/08/24 12:07:44;;;;;;;;;;;;;;;24.72;63.34;101930.91;4990886;28;19918;-54
2022/08/24 12:10:18;;;;;;;;;;;;;;;24.74;63.14;101939.69;4992436;28;19930;-53
2022/08/24 12:13:02;;;;;;;;;;;;;;;24.75;63.25;101944.06;4995084;28;19918;-52
2022/08/24 12:15:50;;;;;;;;;;;;;;;24.75;63.04;101940.50;4991074;28;21272;-55
2022/08/24 12:18:29;;;;;;;;;;;;;;;24.77;62.96;101938.50;4989784;28;19921;-52
2022/08/24 12:20:55;;;;;;;;;;;;;;;24.80;63.02;101940.91;4991205;28;20515;-53
2022/08/24 12:23:38;;;;;;;;;;;;;;;24.82;63.00;101936.22;4992965;28;19921;-53
2022/08/24 12:26:08;;;;;;;;;;;;;;;24.84;62.98;101941.44;4994030;28;19929;-52
2022/08/24 12:28:42;;;;;;;;;;;;;;;24.84;62.77;101934.22;4993236;28;19925;-53
2022/08/24 12:31:11;;;;;;;;;;;;;;;24.86;62.60;101943.00;4993961;28;19949;-54
2022/08/24 12:33:38;;;;;;;;;;;;;;;24.83;62.58;101937.91;4990572;28;19918;-52
2022/08/24 12:36:08;;;;;;;;;;;;;;;24.83;62.41;101935.22;4993083;28;19925;-55
2022/08/24 12:38:35;;;;;;;;;;;;;;;24.83;62.46;101940.59;4993804;28;20002;-52
2022/08/24 12:41:11;;;;;;;;;;;;;;;24.83;62.64;101932.53;4989538;28;19929;-52
2022/08/24 12:43:40;;;;;;;;;;;;;;;24.88;62.69;101934.75;4995146;28;19929;-53
2022/08/24 12:46:12;;;;;;;;;;;;;;;24.92;62.70;101926.22;4995606;28;20008;-52
2022/08/24 12:48:41;;;;;;;;;;;;;;;24.95;62.27;101931.28;4981790;28;19933;-53
2022/08/24 12:51:25;;;;;;;;;;;;;;;24.93;62.29;101933.28;4987892;28;19929;-52
2022/08/24 12:54:03;;;;;;;;;;;;;;;24.95;62.16;101935.84;4992646;28;20381;-53
2022/08/24 12:56:47;;;;;;;;;;;;;;;24.93;62.06;101938.66;4991429;28;20032;-52